Time;durP1;ratioP1;P1;durP2;ratioP2;P2;SDS_P1;SDS_P2;PMS_P1;PMS_P2;Temp;Humidity;BMP_temperature;BMP_pressure;BME280_temperature;BME280_humidity;BME280_pressure;Samples;Min_cycle;Max_cycle;Signal;HPM_P1;HPM_P2
2021/04/10 00:00:37;;;;;;;14.63;6.63;;;10.00;92.20;;;;;;5008484;28;20034;-80
2021/04/10 00:03:06;;;;;;;15.10;6.82;;;10.10;91.90;;;;;;5009735;28;20025;-79
2021/04/10 00:05:32;;;;;;;8.45;5.43;;;10.20;91.70;;;;;;5007650;28;20045;-79
2021/04/10 00:07:57;;;;;;;9.43;5.38;;;10.10;91.60;;;;;;5009540;28;20355;-80
2021/04/10 00:10:28;;;;;;;11.00;5.38;;;10.20;91.60;;;;;;5008078;28;20435;-79
2021/04/10 00:12:56;;;;;;;9.88;5.32;;;10.20;91.70;;;;;;5009361;28;20073;-79
2021/04/10 00:15:23;;;;;;;8.60;5.10;;;10.10;92.00;;;;;;5011016;28;20061;-79
2021/04/10 00:17:49;;;;;;;13.70;6.00;;;10.10;91.90;;;;;;5009143;28;20117;-78
2021/04/10 00:20:18;;;;;;;12.48;5.63;;;10.20;91.90;;;;;;5009040;28;20415;-78
2021/04/10 00:22:45;;;;;;;9.85;5.97;;;10.20;91.70;;;;;;5009190;28;20092;-79
2021/04/10 00:25:12;;;;;;;10.48;5.38;;;10.10;91.90;;;;;;5009085;28;20120;-80
2021/04/10 00:27:39;;;;;;;10.93;5.65;;;10.10;92.40;;;;;;5009271;28;20061;-80
2021/04/10 00:30:06;;;;;;;13.80;5.40;;;10.00;92.30;;;;;;5010999;28;20022;-83
2021/04/10 00:32:32;;;;;;;9.90;5.38;;;9.80;93.10;;;;;;5009369;28;20041;-81
2021/04/10 00:34:58;;;;;;;8.60;5.07;;;9.80;93.10;;;;;;5009230;28;20042;-80
2021/04/10 00:37:23;;;;;;;12.40;5.47;;;9.70;93.00;;;;;;5009093;28;20110;-80
2021/04/10 00:39:49;;;;;;;11.77;6.28;;;9.70;92.90;;;;;;5008120;28;20072;-80
2021/04/10 00:42:15;;;;;;;12.63;5.68;;;9.80;92.90;;;;;;5010702;28;20049;-80
2021/04/10 00:44:40;;;;;;;10.55;5.57;;;9.70;92.80;;;;;;5009311;28;20034;-79
2021/04/10 00:47:06;;;;;;;15.10;5.72;;;9.70;92.90;;;;;;5009215;28;20038;-80
2021/04/10 00:49:31;;;;;;;14.90;5.55;;;9.70;93.10;;;;;;5007972;28;20034;-80
2021/04/10 00:51:57;;;;;;;11.40;4.93;;;9.70;93.00;;;;;;5009461;28;20026;-80
2021/04/10 00:54:23;;;;;;;14.75;5.47;;;9.90;92.90;;;;;;5011192;28;20325;-79
2021/04/10 00:56:49;;;;;;;11.45;5.07;;;9.70;92.90;;;;;;5012622;28;20111;-80
2021/04/10 00:59:15;;;;;;;10.70;4.65;;;9.70;93.10;;;;;;5012583;28;20057;-80
2021/04/10 01:01:40;;;;;;;10.32;5.72;;;9.90;92.80;;;;;;5011366;28;20037;-80
2021/04/10 01:04:06;;;;;;;14.55;4.72;;;9.90;92.50;;;;;;5012292;28;20057;-79
2021/04/10 01:06:32;;;;;;;11.45;4.45;;;9.90;92.40;;;;;;5013614;28;20053;-77
2021/04/10 01:08:58;;;;;;;11.13;3.97;;;10.00;92.00;;;;;;5011304;28;20290;-79
2021/04/10 01:11:47;;;;;;;12.23;4.70;;;10.00;92.00;;;;;;5012015;28;20038;-76
2021/04/10 01:14:49;;;;;;;10.88;4.53;;;10.00;92.00;;;;;;5010888;28;20368;-76
2021/04/10 01:17:34;;;;;;;11.88;4.97;;;9.90;92.60;;;;;;5012153;28;20431;-78
2021/04/10 01:20:13;;;;;;;10.80;4.25;;;9.90;92.60;;;;;;5011031;28;20492;-79
2021/04/10 01:23:00;;;;;;;11.30;4.00;;;9.90;92.40;;;;;;5011991;28;20022;-80
2021/04/10 01:25:52;;;;;;;10.38;5.00;;;9.90;92.20;;;;;;5012000;28;20042;-79
2021/04/10 01:28:48;;;;;;;12.88;6.07;;;9.80;92.40;;;;;;5011888;28;20042;-79
2021/04/10 01:31:19;;;;;;;8.45;5.32;;;9.80;92.50;;;;;;5011745;28;20058;-78
2021/04/10 01:33:53;;;;;;;12.73;5.80;;;9.80;92.60;;;;;;5011926;28;20423;-78
2021/04/10 01:36:25;;;;;;;14.10;5.63;;;9.70;92.90;;;;;;5000799;28;20113;-79
2021/04/10 01:38:52;;;;;;;10.55;6.30;;;9.60;93.00;;;;;;4991918;28;20048;-79
2021/04/10 01:41:20;;;;;;;10.40;7.05;;;9.60;93.10;;;;;;4992011;28;20042;-79
2021/04/10 01:43:48;;;;;;;15.07;7.45;;;9.60;93.30;;;;;;4990989;28;20364;-80
2021/04/10 01:46:14;;;;;;;15.63;6.60;;;9.50;93.60;;;;;;4992031;28;20043;-80
2021/04/10 01:48:43;;;;;;;11.05;6.05;;;9.40;93.70;;;;;;4991808;28;20053;-79
2021/04/10 01:51:09;;;;;;;9.02;5.50;;;9.40;94.00;;;;;;4992551;28;20034;-78
2021/04/10 01:53:36;;;;;;;10.70;5.53;;;9.30;94.00;;;;;;4991599;28;20039;-80
2021/04/10 01:56:03;;;;;;;14.15;6.30;;;9.30;94.10;;;;;;4991269;28;20551;-79
2021/04/10 01:58:29;;;;;;;9.73;5.05;;;9.30;94.10;;;;;;4991715;28;20034;-78
2021/04/10 02:00:57;;;;;;;8.77;5.55;;;9.30;94.10;;;;;;4991445;28;20050;-79
2021/04/10 02:03:23;;;;;;;11.95;5.20;;;9.30;94.00;;;;;;4993182;28;20500;-79
2021/04/10 02:05:49;;;;;;;11.23;5.22;;;9.40;93.90;;;;;;4990260;28;20041;-80
2021/04/10 02:08:18;;;;;;;10.10;5.28;;;9.30;94.00;;;;;;4991709;28;20047;-79
2021/04/10 02:10:44;;;;;;;10.13;5.50;;;9.30;94.10;;;;;;4991410;28;20027;-79
2021/04/10 02:13:12;;;;;;;13.88;6.00;;;9.20;94.10;;;;;;4991154;28;20108;-79
2021/04/10 02:15:37;;;;;;;13.25;5.65;;;9.30;94.10;;;;;;4991245;28;20080;-79
2021/04/10 02:18:03;;;;;;;14.90;5.90;;;9.30;94.10;;;;;;4992782;28;20022;-79
2021/04/10 02:20:29;;;;;;;12.13;5.30;;;9.30;94.30;;;;;;4991129;28;20031;-80
2021/04/10 02:22:56;;;;;;;15.60;5.22;;;9.20;94.40;;;;;;4991395;28;20038;-81
2021/04/10 02:25:27;;;;;;;9.05;4.72;;;9.30;94.40;;;;;;4991378;28;20500;-82
2021/04/10 02:27:56;;;;;;;13.70;4.57;;;9.30;94.50;;;;;;4991887;28;20117;-82
2021/04/10 02:30:24;;;;;;;13.32;4.70;;;9.40;94.40;;;;;;4993600;28;20026;-81
2021/04/10 02:33:03;;;;;;;11.35;4.43;;;9.30;94.20;;;;;;4992238;28;20034;-80
2021/04/10 02:35:40;;;;;;;9.77;3.92;;;9.30;94.30;;;;;;4990275;28;20042;-81
2021/04/10 02:38:07;;;;;;;15.90;4.72;;;9.30;94.60;;;;;;4991283;28;20763;-79
2021/04/10 02:40:37;;;;;;;15.07;4.10;;;9.20;94.40;;;;;;4989718;28;20690;-79
2021/04/10 02:43:08;;;;;;;9.60;4.15;;;9.30;94.70;;;;;;4990905;28;20125;-80
2021/04/10 02:45:35;;;;;;;10.00;4.13;;;9.20;94.90;;;;;;4989704;28;20049;-79
2021/04/10 02:48:06;;;;;;;11.25;3.92;;;9.30;95.00;;;;;;4992531;28;20033;-81
2021/04/10 02:50:33;;;;;;;12.18;4.28;;;9.20;94.90;;;;;;4990672;28;20034;-82
2021/04/10 02:53:03;;;;;;;8.07;4.00;;;9.10;95.10;;;;;;4990479;28;20334;-79
2021/04/10 02:55:35;;;;;;;9.40;4.05;;;9.20;95.30;;;;;;4989652;28;20046;-78
2021/04/10 02:58:07;;;;;;;12.63;3.97;;;9.20;95.50;;;;;;4990753;28;20125;-78
2021/04/10 03:00:35;;;;;;;15.80;4.63;;;9.20;95.50;;;;;;4992100;28;20026;-78
2021/04/10 03:03:03;;;;;;;11.55;4.15;;;9.20;95.50;;;;;;4989748;28;20038;-77
2021/04/10 03:05:29;;;;;;;10.43;4.30;;;9.20;95.50;;;;;;4990605;28;20098;-77
2021/04/10 03:07:57;;;;;;;10.40;4.07;;;9.10;95.50;;;;;;4990131;28;20046;-77
2021/04/10 03:10:23;;;;;;;8.77;3.47;;;9.10;95.60;;;;;;4990442;28;20035;-77
2021/04/10 03:12:49;;;;;;;7.57;4.18;;;9.20;95.70;;;;;;4990598;28;20333;-79
2021/04/10 03:15:16;;;;;;;16.38;4.90;;;9.20;95.80;;;;;;4991880;28;20030;-77
2021/04/10 03:17:42;;;;;;;10.80;3.50;;;9.20;95.50;;;;;;4990163;28;20034;-77
2021/04/10 03:20:20;;;;;;;12.88;3.53;;;9.20;95.80;;;;;;4989156;28;20058;-77
2021/04/10 03:22:46;;;;;;;;;;;9.20;95.90;;;;;;4990613;28;20034;-78
2021/04/10 03:25:13;;;;;;;9.60;3.53;;;9.20;95.90;;;;;;4990130;28;19910;-78
2021/04/10 03:27:40;;;;;;;15.55;3.60;;;9.00;95.80;;;;;;4990255;28;20050;-77
2021/04/10 03:30:08;;;;;;;7.88;4.00;;;9.00;96.00;;;;;;4991801;28;20030;-79
2021/04/10 03:32:35;;;;;;;9.68;3.47;;;8.90;95.90;;;;;;4988678;28;20081;-79
2021/04/10 03:35:01;;;;;;;9.48;3.47;;;8.90;96.20;;;;;;4990005;28;20038;-79
2021/04/10 03:37:31;;;;;;;11.00;3.80;;;9.00;96.40;;;;;;4989712;28;20117;-79
2021/04/10 03:39:59;;;;;;;15.90;4.07;;;8.90;96.30;;;;;;4989740;28;20054;-79
2021/04/10 03:42:41;;;;;;;15.25;3.85;;;9.00;96.40;;;;;;4991422;28;20393;-79
2021/04/10 03:45:14;;;;;;;7.22;3.55;;;9.00;96.30;;;;;;4990526;28;20118;-77
2021/04/10 03:47:39;;;;;;;9.63;4.13;;;8.90;96.30;;;;;;4990063;28;20042;-79
2021/04/10 03:50:06;;;;;;;11.23;4.35;;;8.90;96.40;;;;;;4988520;28;20397;-80
2021/04/10 03:52:32;;;;;;;10.10;3.60;;;8.90;96.40;;;;;;4988566;28;20093;-81
2021/04/10 03:54:58;;;;;;;9.95;3.72;;;8.90;96.50;;;;;;4988831;28;20973;-82
2021/04/10 03:57:24;;;;;;;14.18;4.05;;;8.90;96.60;;;;;;4991401;28;20360;-79
2021/04/10 03:59:49;;;;;;;12.38;4.32;;;8.90;96.30;;;;;;4988758;28;20563;-80
2021/04/10 04:02:15;;;;;;;11.13;3.70;;;8.90;96.50;;;;;;4989924;28;20046;-81
2021/04/10 04:04:41;;;;;;;10.25;3.35;;;8.90;96.50;;;;;;4989770;28;20338;-78
2021/04/10 04:07:08;;;;;;;7.13;3.55;;;8.90;96.50;;;;;;4989411;28;20038;-79
2021/04/10 04:09:33;;;;;;;14.20;4.03;;;9.00;96.70;;;;;;4990031;28;20018;-76
2021/04/10 04:11:59;;;;;;;12.32;4.97;;;8.90;96.60;;;;;;4991349;28;20060;-80
2021/04/10 04:14:25;;;;;;;9.20;3.50;;;8.90;96.50;;;;;;4989333;28;20055;-80
2021/04/10 04:16:51;;;;;;;7.05;3.67;;;8.90;96.60;;;;;;4989273;28;20050;-79
2021/04/10 04:19:17;;;;;;;13.35;3.47;;;9.00;96.60;;;;;;4989770;28;20464;-78
2021/04/10 04:21:43;;;;;;;10.57;3.88;;;8.90;96.70;;;;;;4989597;28;20353;-79
2021/04/10 04:24:09;;;;;;;11.80;3.70;;;8.90;96.60;;;;;;4990218;28;20089;-81
2021/04/10 04:26:35;;;;;;;12.05;4.47;;;9.00;96.50;;;;;;4989751;28;20512;-81
2021/04/10 04:29:00;;;;;;;11.20;3.88;;;9.00;96.70;;;;;;4989726;28;20042;-79
2021/04/10 04:31:26;;;;;;;10.98;4.20;;;9.00;96.80;;;;;;4993118;28;20349;-81
2021/04/10 04:33:52;;;;;;;12.13;3.92;;;9.00;96.60;;;;;;4992857;28;20026;-80
2021/04/10 04:36:18;;;;;;;15.10;3.95;;;8.90;96.40;;;;;;4994723;28;20129;-79
2021/04/10 04:38:43;;;;;;;8.98;3.47;;;8.90;96.50;;;;;;4991731;28;20137;-80
2021/04/10 04:41:09;;;;;;;16.05;3.88;;;8.80;96.60;;;;;;4993222;28;20046;-80
2021/04/10 04:43:35;;;;;;;19.60;4.35;;;8.80;96.70;;;;;;4991772;28;20046;-80
2021/04/10 04:46:00;;;;;;;9.07;3.55;;;8.80;96.80;;;;;;4992854;28;20069;-79
2021/04/10 04:48:26;;;;;;;11.35;3.70;;;8.70;96.80;;;;;;4994741;28;20023;-79
2021/04/10 04:50:52;;;;;;;13.60;4.38;;;8.70;96.80;;;;;;4992861;28;20119;-79
2021/04/10 04:53:17;;;;;;;10.65;3.60;;;8.80;96.80;;;;;;4991754;28;20122;-78
2021/04/10 04:55:43;;;;;;;10.40;3.83;;;8.80;96.90;;;;;;4991567;28;20127;-80
2021/04/10 04:58:08;;;;;;;8.90;3.30;;;8.80;96.80;;;;;;4992773;28;20492;-82
2021/04/10 05:00:34;;;;;;;8.02;3.67;;;8.70;96.70;;;;;;4991773;28;20050;-82
2021/04/10 05:03:03;;;;;;;12.68;4.00;;;8.60;96.90;;;;;;4993067;28;20022;-79
2021/04/10 05:05:28;;;;;;;10.88;4.57;;;8.60;97.20;;;;;;4992635;28;20026;-81
2021/04/10 05:07:54;;;;;;;15.68;4.28;;;8.70;97.20;;;;;;4992511;28;20405;-80
2021/04/10 05:10:20;;;;;;;11.00;4.13;;;8.80;97.20;;;;;;4992407;28;20140;-79
2021/04/10 05:12:45;;;;;;;11.65;4.18;;;8.70;97.00;;;;;;4992640;28;20065;-77
2021/04/10 05:15:11;;;;;;;9.02;3.58;;;8.70;97.10;;;;;;4994059;28;20110;-78
2021/04/10 05:17:40;;;;;;;17.13;4.00;;;8.70;97.10;;;;;;4992488;28;20514;-78
2021/04/10 05:20:08;;;;;;;9.70;4.40;;;8.70;97.20;;;;;;4991315;28;20465;-78
2021/04/10 05:22:34;;;;;;;15.35;4.45;;;8.80;97.20;;;;;;4992559;28;20065;-78
2021/04/10 05:24:59;;;;;;;8.57;4.35;;;8.80;97.10;;;;;;4991220;28;20022;-80
2021/04/10 05:27:26;;;;;;;9.93;3.80;;;8.80;97.00;;;;;;4993983;28;20571;-78
2021/04/10 05:29:52;;;;;;;12.63;3.90;;;8.90;97.10;;;;;;4992391;28;20110;-78
2021/04/10 05:32:18;;;;;;;15.30;4.50;;;8.80;96.80;;;;;;4991950;28;20030;-80
2021/04/10 05:34:44;;;;;;;12.05;4.75;;;8.70;96.90;;;;;;4992168;28;20050;-80
2021/04/10 05:37:10;;;;;;;18.40;4.63;;;8.70;97.00;;;;;;4992018;28;20080;-79
2021/04/10 05:39:35;;;;;;;15.32;4.85;;;8.70;96.90;;;;;;4991968;28;20026;-79
2021/04/10 05:42:02;;;;;;;11.77;4.20;;;8.70;96.90;;;;;;4993758;28;20014;-79
2021/04/10 05:44:30;;;;;;;12.18;4.50;;;8.70;97.10;;;;;;4992181;28;20397;-81
2021/04/10 05:46:56;;;;;;;14.43;4.10;;;8.70;97.10;;;;;;4990866;28;20046;-79
2021/04/10 05:49:21;;;;;;;16.33;4.07;;;8.70;97.10;;;;;;4990711;28;20042;-79
2021/04/10 05:51:47;;;;;;;12.10;3.85;;;8.60;97.20;;;;;;4991924;28;20034;-79
2021/04/10 05:54:12;;;;;;;15.15;4.65;;;8.60;97.40;;;;;;4993244;28;20030;-78
2021/04/10 05:56:38;;;;;;;12.68;4.45;;;8.60;97.30;;;;;;4991780;28;20100;-76
2021/04/10 05:59:04;;;;;;;9.27;4.20;;;8.50;97.30;;;;;;4991606;28;20081;-76
2021/04/10 06:01:30;;;;;;;10.40;4.43;;;8.50;97.40;;;;;;4991895;28;20042;-79
2021/04/10 06:03:56;;;;;;;14.52;4.32;;;8.50;97.50;;;;;;4991699;28;20390;-76
2021/04/10 06:06:24;;;;;;;14.65;4.53;;;8.50;97.50;;;;;;4993267;28;20152;-77
2021/04/10 06:08:53;;;;;;;18.08;4.97;;;8.50;97.60;;;;;;4990159;28;20054;-77
2021/04/10 06:11:19;;;;;;;14.95;4.70;;;8.50;97.50;;;;;;4990044;28;20045;-76
2021/04/10 06:13:45;;;;;;;24.30;9.63;;;8.60;97.40;;;;;;4991316;28;20240;-77
2021/04/10 06:16:11;;;;;;;16.88;6.57;;;8.70;97.50;;;;;;4991004;28;20068;-77
2021/04/10 06:18:37;;;;;;;14.52;5.63;;;8.70;97.40;;;;;;4990037;28;20038;-76
2021/04/10 06:21:03;;;;;;;13.40;4.93;;;8.70;97.30;;;;;;4991700;28;20018;-76
2021/04/10 06:23:29;;;;;;;19.00;4.93;;;8.70;97.30;;;;;;4991184;28;20184;-78
2021/04/10 06:25:55;;;;;;;11.32;4.72;;;8.70;97.20;;;;;;4991078;28;20367;-76
2021/04/10 06:28:20;;;;;;;19.08;5.00;;;8.70;97.20;;;;;;4991265;28;20551;-77
2021/04/10 06:30:46;;;;;;;14.63;5.30;;;8.60;97.20;;;;;;4989998;28;20085;-76
2021/04/10 06:33:12;;;;;;;16.55;5.78;;;8.60;97.50;;;;;;4992649;28;20050;-78
2021/04/10 06:35:37;;;;;;;15.02;5.30;;;8.50;97.30;;;;;;4989572;28;20042;-79
2021/04/10 06:38:03;;;;;;;16.27;5.85;;;8.60;97.40;;;;;;4990582;28;20515;-78
2021/04/10 06:40:30;;;;;;;15.90;5.53;;;8.60;97.30;;;;;;4990861;28;20421;-83
2021/04/10 06:42:57;;;;;;;17.38;5.75;;;8.70;97.40;;;;;;4990783;28;20031;-78
2021/04/10 06:45:23;;;;;;;18.48;5.28;;;8.60;97.20;;;;;;4991137;28;20026;-76
2021/04/10 06:47:50;;;;;;;17.90;5.20;;;8.60;97.60;;;;;;4990738;28;20049;-76
2021/04/10 06:50:16;;;;;;;12.50;5.47;;;8.60;97.30;;;;;;4990614;28;20061;-76
2021/04/10 06:52:43;;;;;;;16.27;5.38;;;8.70;97.40;;;;;;4990248;28;20461;-77
2021/04/10 06:55:19;;;;;;;18.42;6.00;;;8.80;97.30;;;;;;4990956;28;20056;-77
2021/04/10 06:58:05;;;;;;;17.60;5.53;;;8.80;97.30;;;;;;4990255;28;20038;-77
2021/04/10 07:00:32;;;;;;;20.67;6.97;;;8.80;97.20;;;;;;4992145;28;20026;-77
2021/04/10 07:02:59;;;;;;;22.67;6.80;;;8.80;97.00;;;;;;4990501;28;20073;-76
2021/04/10 07:05:26;;;;;;;18.87;5.37;;;8.70;96.90;;;;;;4989177;28;20074;-77
2021/04/10 07:07:52;;;;;;;17.20;5.70;;;8.60;97.10;;;;;;4988960;28;20745;-77
2021/04/10 07:10:18;;;;;;;22.35;6.20;;;8.70;97.10;;;;;;4990430;28;20058;-76
2021/04/10 07:12:44;;;;;;;18.05;6.55;;;8.70;97.20;;;;;;4990468;28;20404;-77
2021/04/10 07:15:12;;;;;;;21.17;5.97;;;8.70;97.30;;;;;;4992125;28;20118;-82
2021/04/10 07:17:38;;;;;;;25.08;6.25;;;8.70;97.20;;;;;;4990175;28;20027;-76
2021/04/10 07:20:22;;;;;;;20.60;5.75;;;8.70;97.20;;;;;;4989607;28;20118;-76
2021/04/10 07:23:04;;;;;;;21.55;6.57;;;8.80;97.40;;;;;;4988700;28;20061;-75
2021/04/10 07:25:32;;;;;;;23.38;6.75;;;8.80;97.10;;;;;;4990078;28;20053;-75
2021/04/10 07:28:21;;;;;;;14.98;5.93;;;8.70;97.10;;;;;;4989241;28;20049;-74
2021/04/10 07:31:00;;;;;;;25.55;8.13;;;8.70;97.20;;;;;;4989413;28;20117;-75
2021/04/10 07:33:42;;;;;;;22.40;7.20;;;8.80;97.20;;;;;;4991139;28;20034;-73
2021/04/10 07:36:15;;;;;;;19.15;7.57;;;8.80;97.50;;;;;;4990431;28;20042;-75
2021/04/10 07:38:43;;;;;;;24.13;7.55;;;8.70;97.30;;;;;;4982078;28;20034;-82
2021/04/10 07:41:14;;;;;;;23.73;8.27;;;8.80;97.30;;;;;;4991134;28;20120;-73
2021/04/10 07:43:41;;;;;;;24.00;7.50;;;8.80;97.40;;;;;;4990966;28;20030;-78
2021/04/10 07:46:16;;;;;;;21.10;8.20;;;8.90;97.30;;;;;;4990005;28;20401;-74
2021/04/10 07:49:02;;;;;;;21.60;8.15;;;8.80;97.30;;;;;;4991921;28;20368;-74
2021/04/10 07:51:30;;;;;;;21.30;8.02;;;8.80;97.20;;;;;;4990896;28;20201;-81
2021/04/10 07:53:57;;;;;;;20.40;8.85;;;8.90;97.20;;;;;;4990879;28;20038;-79
2021/04/10 07:56:23;;;;;;;23.13;8.20;;;8.90;97.10;;;;;;4990874;28;20066;-76
2021/04/10 07:58:49;;;;;;;25.55;9.38;;;8.90;97.20;;;;;;4990329;28;20084;-81
2021/04/10 08:01:16;;;;;;;21.35;8.68;;;9.00;97.10;;;;;;4991290;28;20045;-76
2021/04/10 08:03:43;;;;;;;26.83;8.57;;;9.00;97.00;;;;;;4992912;28;20026;-77
2021/04/10 08:06:09;;;;;;;28.60;8.63;;;9.00;96.90;;;;;;4995610;28;20081;-77
2021/04/10 08:08:49;;;;;;;25.52;8.48;;;9.00;96.80;;;;;;4994675;28;20046;-76
2021/04/10 08:11:14;;;;;;;27.83;9.27;;;9.00;96.80;;;;;;4993835;28;20117;-77
2021/04/10 08:13:54;;;;;;;29.65;9.50;;;9.00;96.80;;;;;;4995048;28;20468;-76
2021/04/10 08:16:21;;;;;;;19.77;8.88;;;9.00;96.70;;;;;;4997082;28;20041;-77
2021/04/10 08:19:13;;;;;;;27.42;9.93;;;9.00;96.80;;;;;;4987732;28;20043;-85
2021/04/10 08:21:50;;;;;;;22.75;9.13;;;9.00;96.60;;;;;;4992563;28;20034;-80
2021/04/10 08:24:22;;;;;;;28.83;9.88;;;9.10;96.70;;;;;;4994505;28;20046;-80
2021/04/10 08:26:57;;;;;;;28.23;9.32;;;9.10;96.80;;;;;;4995272;28;20030;-85
2021/04/10 08:29:23;;;;;;;29.30;9.68;;;9.10;96.60;;;;;;4995826;28;20038;-83
2021/04/10 08:31:50;;;;;;;30.05;9.73;;;9.00;96.60;;;;;;5012005;28;20037;-88
2021/04/10 08:34:16;;;;;;;26.70;9.65;;;9.00;96.60;;;;;;4995133;28;20451;-82
2021/04/10 08:36:46;;;;;;;28.55;10.00;;;9.00;96.70;;;;;;5009842;28;20054;-89
2021/04/10 08:39:13;;;;;;;30.92;10.48;;;9.10;96.70;;;;;;5010038;28;20035;-83
2021/04/10 08:41:40;;;;;;;33.85;10.88;;;9.00;96.90;;;;;;4995653;28;20030;-83
2021/04/10 08:44:07;;;;;;;31.75;11.00;;;9.10;96.70;;;;;;4994477;28;20109;-83
2021/04/10 08:46:36;;;;;;;33.50;11.88;;;9.20;96.70;;;;;;4995920;28;20457;-83
2021/04/10 08:49:02;;;;;;;28.38;11.50;;;9.20;96.60;;;;;;4992897;28;20342;-82
2021/04/10 08:51:33;;;;;;;19.48;10.63;;;9.10;96.90;;;;;;4992635;28;20045;-80
2021/04/10 08:54:00;;;;;;;30.20;11.80;;;9.00;96.50;;;;;;4993993;28;20073;-81
2021/04/10 08:56:28;;;;;;;25.30;9.95;;;9.00;96.60;;;;;;4993827;28;20065;-83
2021/04/10 08:59:15;;;;;;;30.67;11.48;;;9.10;96.60;;;;;;4994514;28;20022;-82
2021/04/10 09:01:43;;;;;;;24.15;10.18;;;9.10;96.50;;;;;;4992703;28;20488;-84
2021/04/10 09:04:12;;;;;;;30.20;11.52;;;9.00;96.40;;;;;;4994840;28;20066;-85
2021/04/10 09:06:38;;;;;;;30.42;10.73;;;9.10;96.50;;;;;;4993848;28;20030;-79
2021/04/10 09:09:15;;;;;;;31.73;11.27;;;9.20;96.40;;;;;;4993768;28;20030;-79
2021/04/10 09:11:45;;;;;;;24.23;11.02;;;9.20;96.30;;;;;;4992583;28;20061;-81
2021/04/10 09:14:31;;;;;;;25.02;10.70;;;9.20;96.30;;;;;;4993220;28;20034;-82
2021/04/10 09:16:58;;;;;;;30.00;12.63;;;9.20;96.10;;;;;;4994588;28;20101;-83
2021/04/10 09:19:25;;;;;;;37.72;11.73;;;9.30;96.50;;;;;;4993204;28;20109;-76
2021/04/10 09:21:56;;;;;;;23.98;10.88;;;9.30;96.20;;;;;;4993698;28;20042;-89
2021/04/10 09:24:31;;;;;;;24.17;10.23;;;9.40;96.20;;;;;;4993877;28;20100;-87
2021/04/10 09:27:02;;;;;;;30.23;9.65;;;9.50;96.20;;;;;;4995378;28;20031;-87
2021/04/10 09:29:29;;;;;;;22.38;8.55;;;9.50;96.20;;;;;;4992897;28;20058;-90
2021/04/10 09:32:00;;;;;;;30.23;9.57;;;9.50;96.10;;;;;;4994420;28;20034;-82
2021/04/10 09:34:50;;;;;;;25.67;9.13;;;9.60;95.90;;;;;;4992682;28;20030;-90
2021/04/10 09:37:22;;;;;;;22.20;8.57;;;9.60;95.70;;;;;;5008673;28;20066;-82
2021/04/10 09:40:06;;;;;;;23.88;9.00;;;9.60;95.90;;;;;;4993257;28;20034;-82
2021/04/10 09:42:36;;;;;;;26.20;8.75;;;9.60;96.00;;;;;;4992800;28;20038;-85
2021/04/10 09:45:08;;;;;;;31.17;9.35;;;9.60;95.90;;;;;;4993680;28;20546;-80
2021/04/10 09:48:01;;;;;;;21.27;8.13;;;9.60;95.60;;;;;;4992960;28;20365;-84
2021/04/10 09:50:50;;;;;;;27.17;9.18;;;9.70;96.10;;;;;;4993391;28;20069;-78
2021/04/10 09:53:18;;;;;;;25.20;7.90;;;9.70;95.60;;;;;;4992749;28;20022;-81
2021/04/10 09:55:58;;;;;;;24.83;7.55;;;9.70;95.40;;;;;;4994290;28;20113;-84
2021/04/10 09:58:24;;;;;;;21.48;7.72;;;9.70;95.30;;;;;;4991619;28;20035;-81
2021/04/10 10:00:54;;;;;;;24.80;7.47;;;9.60;95.10;;;;;;4992948;28;20487;-83
2021/04/10 10:03:22;;;;;;;21.63;7.55;;;9.60;95.20;;;;;;4992720;28;20376;-78
2021/04/10 10:05:51;;;;;;;21.70;7.47;;;9.70;95.20;;;;;;4992552;28;20262;-77
2021/04/10 10:08:23;;;;;;;20.77;7.30;;;9.70;95.20;;;;;;4991688;28;20404;-75
2021/04/10 10:11:09;;;;;;;22.88;7.25;;;9.80;95.10;;;;;;4994150;28;20014;-80
2021/04/10 10:13:40;;;;;;;26.75;8.13;;;9.90;95.20;;;;;;4992583;28;20045;-80
2021/04/10 10:16:06;;;;;;;24.95;8.10;;;9.70;94.90;;;;;;4992437;28;20046;-81
2021/04/10 10:18:37;;;;;;;24.70;8.00;;;9.70;95.00;;;;;;4992115;28;20030;-80
2021/04/10 10:21:14;;;;;;;23.63;7.28;;;9.80;95.00;;;;;;4992243;28;20085;-83
2021/04/10 10:24:02;;;;;;;21.63;9.47;;;9.90;95.00;;;;;;4991884;28;20026;-80
2021/04/10 10:26:32;;;;;;;24.90;7.95;;;10.00;94.50;;;;;;4991660;28;20034;-78
2021/04/10 10:29:02;;;;;;;24.77;8.45;;;10.10;94.30;;;;;;4992688;28;20459;-82
2021/04/10 10:31:39;;;;;;;26.77;8.15;;;10.30;94.10;;;;;;4991650;28;20118;-82
2021/04/10 10:34:10;;;;;;;25.67;8.63;;;10.30;94.10;;;;;;4993238;28;20038;-82
2021/04/10 10:36:39;;;;;;;18.73;7.57;;;10.40;94.10;;;;;;4992022;28;20054;-81
2021/04/10 10:39:07;;;;;;;22.55;8.52;;;10.40;94.00;;;;;;4992346;28;20037;-85
2021/04/10 10:41:45;;;;;;;21.35;7.88;;;10.30;93.80;;;;;;4992222;28;20439;-87
2021/04/10 10:44:12;;;;;;;33.92;7.72;;;10.30;93.70;;;;;;4991128;28;20116;-83
2021/04/10 10:46:37;;;;;;;29.95;8.07;;;10.40;93.90;;;;;;4993375;28;20093;-79
2021/04/10 10:49:13;;;;;;;23.67;7.22;;;10.40;93.70;;;;;;5002947;28;20126;-84
2021/04/10 10:51:41;;;;;;;20.23;5.95;;;10.40;93.50;;;;;;4991983;28;20532;-79
2021/04/10 10:54:07;;;;;;;;;;;10.40;93.40;;;;;;4992351;28;20042;-77
2021/04/10 10:56:34;;;;;;;23.83;6.40;;;10.40;93.10;;;;;;4991792;28;19921;-80
2021/04/10 10:59:02;;;;;;;18.95;6.10;;;10.30;93.10;;;;;;4990446;28;20030;-79
2021/04/10 11:01:30;;;;;;;22.58;7.53;;;10.30;93.00;;;;;;4993364;28;20035;-82
2021/04/10 11:04:06;;;;;;;19.83;6.07;;;10.30;93.10;;;;;;5002896;28;20050;-82
2021/04/10 11:06:43;;;;;;;25.85;6.35;;;10.20;92.90;;;;;;5011350;28;20040;-81
2021/04/10 11:09:11;;;;;;;22.17;5.97;;;10.30;92.90;;;;;;5010945;28;20042;-77
2021/04/10 11:11:40;;;;;;;21.65;5.57;;;10.30;92.70;;;;;;5011315;28;20415;-76
2021/04/10 11:14:06;;;;;;;16.58;4.38;;;10.40;92.60;;;;;;5010718;28;20044;-75
2021/04/10 11:16:32;;;;;;;21.08;4.88;;;10.40;92.40;;;;;;5011456;28;20441;-76
2021/04/10 11:18:59;;;;;;;19.05;4.70;;;10.50;92.20;;;;;;5009549;28;20037;-72
2021/04/10 11:21:26;;;;;;;19.88;4.45;;;10.50;92.00;;;;;;5010937;28;20049;-74
2021/04/10 11:24:00;;;;;;;19.10;4.38;;;10.50;91.90;;;;;;5011130;28;20337;-83
2021/04/10 11:26:39;;;;;;;23.95;4.80;;;10.60;91.90;;;;;;5010622;28;20042;-76
2021/04/10 11:29:26;;;;;;;18.65;4.72;;;10.60;91.70;;;;;;5011188;28;20036;-77
2021/04/10 11:32:07;;;;;;;18.15;4.68;;;10.80;92.10;;;;;;5011328;28;20021;-78
2021/04/10 11:34:34;;;;;;;15.50;4.25;;;11.00;91.70;;;;;;5011408;28;20415;-76
2021/04/10 11:37:02;;;;;;;15.45;4.80;;;11.00;91.00;;;;;;5009718;28;20738;-78
2021/04/10 11:39:28;;;;;;;15.18;4.63;;;10.90;90.80;;;;;;5010649;28;20121;-84
2021/04/10 11:41:54;;;;;;;16.10;4.70;;;10.80;90.60;;;;;;5010138;28;20116;-77
2021/04/10 11:44:24;;;;;;;13.52;4.30;;;10.70;90.70;;;;;;5010582;28;20844;-78
2021/04/10 11:46:59;;;;;;;19.00;4.97;;;10.70;90.70;;;;;;5012164;28;20456;-78
2021/04/10 11:49:28;;;;;;;21.90;4.78;;;10.80;90.80;;;;;;5011282;28;20038;-77
2021/04/10 11:52:06;;;;;;;18.30;4.72;;;10.80;90.80;;;;;;5010236;28;20038;-79
2021/04/10 11:54:36;;;;;;;16.85;5.28;;;10.80;90.60;;;;;;5010218;28;20117;-81
2021/04/10 11:57:02;;;;;;;19.40;5.38;;;10.90;90.70;;;;;;5010114;28;20034;-79
2021/04/10 11:59:33;;;;;;;20.08;5.70;;;11.20;90.70;;;;;;5010561;28;20109;-77
2021/04/10 12:02:02;;;;;;;15.52;5.18;;;11.20;90.10;;;;;;5011957;28;20018;-74
2021/04/10 12:04:29;;;;;;;20.83;5.85;;;11.40;90.20;;;;;;5010624;28;20426;-73
2021/04/10 12:07:12;;;;;;;15.25;5.75;;;11.60;90.00;;;;;;5008968;28;20095;-80
2021/04/10 12:09:39;;;;;;;18.85;6.35;;;11.60;89.40;;;;;;5010553;28;20124;-76
2021/04/10 12:12:08;;;;;;;21.77;6.18;;;11.70;89.40;;;;;;5010245;28;20129;-84
2021/04/10 12:14:35;;;;;;;23.17;6.53;;;11.90;89.40;;;;;;5009086;28;20072;-84
2021/04/10 12:17:00;;;;;;;17.77;4.95;;;12.00;88.80;;;;;;5002331;28;20030;-85
2021/04/10 12:19:27;;;;;;;15.80;5.47;;;12.00;87.40;;;;;;4993352;28;20317;-89
2021/04/10 12:21:53;;;;;;;18.60;5.35;;;12.10;87.60;;;;;;4992182;28;20046;-78
2021/04/10 12:24:19;;;;;;;21.85;5.55;;;12.20;87.10;;;;;;4991094;28;20370;-82
2021/04/10 12:26:45;;;;;;;11.75;4.22;;;12.30;86.30;;;;;;4990884;28;20372;-85
2021/04/10 12:29:11;;;;;;;11.18;3.60;;;12.30;85.50;;;;;;4990835;28;20428;-86
2021/04/10 12:31:37;;;;;;;20.50;4.35;;;12.20;85.40;;;;;;4992624;28;20097;-85
2021/04/10 12:34:03;;;;;;;20.63;4.07;;;12.10;85.30;;;;;;4991532;28;20038;-78
2021/04/10 12:36:30;;;;;;;14.93;4.35;;;11.90;85.70;;;;;;4992951;28;20074;-88
2021/04/10 12:38:56;;;;;;;10.77;4.00;;;11.80;86.40;;;;;;4991537;28;20050;-87
2021/04/10 12:41:22;;;;;;;14.40;4.78;;;11.80;86.50;;;;;;4994153;28;20554;-87
2021/04/10 12:43:50;;;;;;;9.27;3.78;;;11.80;86.00;;;;;;4993168;28;20027;-86
2021/04/10 12:46:17;;;;;;;12.07;3.80;;;11.80;86.10;;;;;;4990039;28;20045;-86
2021/04/10 12:48:43;;;;;;;9.40;3.80;;;11.90;86.70;;;;;;4991171;28;20038;-84
2021/04/10 12:51:09;;;;;;;12.90;3.92;;;11.80;86.30;;;;;;4992861;28;20042;-82
2021/04/10 12:53:35;;;;;;;19.73;4.25;;;11.80;86.90;;;;;;4993985;28;20030;-81
2021/04/10 12:56:00;;;;;;;14.93;3.25;;;11.70;86.70;;;;;;4994390;28;20483;-76